Time;durP1;ratioP1;P1;durP2;ratioP2;P2;SDS_P1;SDS_P2;PMS_P1;PMS_P2;Temp;Humidity;BMP_temperature;BMP_pressure;BME280_temperature;BME280_humidity;BME280_pressure;Samples;Min_cycle;Max_cycle;Signal;HPM_P1;HPM_P2
2021/12/14 00:03:02;;;;;;;9.52;4.85;;;;;;;18.66;47.19;101443.94;3982172;32;15026132;-68
2021/12/14 00:05:30;;;;;;;10.68;4.85;;;;;;;18.66;47.19;101443.94;4437674;32;20108;-68
2021/12/14 00:07:58;;;;;;;9.57;5.32;;;;;;;18.43;47.48;101436.03;4435490;32;21262;-68
2021/12/14 00:13:29;;;;;;;9.90;4.72;;;;;;;18.38;46.80;101441.59;3982421;32;15022654;-68
2021/12/14 00:15:56;;;;;;;10.60;5.40;;;;;;;18.24;47.42;101434.44;4440021;32;20117;-68
2021/12/14 00:18:23;;;;;;;10.57;5.22;;;;;;;18.29;47.54;101427.31;4438211;32;21009;-68
2021/12/14 00:20:55;;;;;;;11.35;5.72;;;;;;;18.32;47.93;101420.66;4439385;32;20056;-68
2021/12/14 00:26:13;;;;;;;12.80;5.57;;;;;;;18.34;47.43;101409.56;4439951;32;20450;-68
2021/12/14 00:28:41;;;;;;;10.10;5.20;;;;;;;18.33;47.41;101410.81;4435693;32;20064;-67
2021/12/14 00:31:13;;;;;;;15.30;5.20;;;;;;;18.23;47.44;101398.66;4436824;32;20496;-67
2021/12/14 00:33:40;;;;;;;9.38;5.10;;;;;;;18.23;47.30;101406.41;4440016;32;20407;-67
2021/12/14 00:36:11;;;;;;;8.88;4.70;;;;;;;18.09;47.38;101413.53;4437398;32;20118;-67
2021/12/14 00:38:40;;;;;;;7.80;3.92;;;;;;;18.21;46.91;101406.09;4440634;32;20021;-67
2021/12/14 00:41:14;;;;;;;8.57;4.28;;;;;;;18.19;47.09;101397.25;4439801;32;20407;-67
2021/12/14 00:43:40;;;;;;;4.57;2.70;;;;;;;18.43;46.79;101404.69;4441821;32;20485;-67
2021/12/14 00:46:06;;;;;;;6.82;3.45;;;;;;;18.14;46.89;101406.41;4441986;32;20700;-67
2021/12/14 00:48:32;;;;;;;5.93;3.15;;;;;;;18.07;47.31;101409.59;4441151;32;20037;-67
2021/12/14 00:51:01;;;;;;;6.55;3.17;;;;;;;18.05;47.06;101417.78;4437830;32;20129;-67
2021/12/14 00:53:28;;;;;;;8.45;4.03;;;;;;;18.25;46.84;101413.22;4438558;32;20100;-67
2021/12/14 00:55:58;;;;;;;5.85;2.55;;;;;;;18.03;47.18;101403.22;4438729;32;20029;-67
2021/12/14 00:58:27;;;;;;;3.62;1.90;;;;;;;18.03;47.53;101391.84;4439237;32;20075;-67
2021/12/14 01:01:01;;;;;;;4.30;2.03;;;;;;;17.72;47.54;101392.78;4438941;32;20028;-67
2021/12/14 01:03:31;;;;;;;3.45;2.00;;;;;;;18.08;46.92;101394.06;4437672;32;20101;-67
2021/12/14 01:05:58;;;;;;;3.42;1.92;;;;;;;18.11;47.07;101402.47;4438661;32;20036;-67
2021/12/14 01:08:28;;;;;;;5.43;3.40;;;;;;;18.03;47.07;101403.22;4438771;32;20081;-67
2021/12/14 01:11:01;;;;;;;5.85;2.62;;;;;;;18.30;47.04;101408.94;4437848;32;20110;-67
2021/12/14 01:13:31;;;;;;;5.07;2.80;;;;;;;18.35;46.99;101416.84;4439957;32;20552;-67
2021/12/14 01:16:14;;;;;;;12.52;2.83;;;;;;;18.23;46.84;101414.97;4438779;32;20375;-67
2021/12/14 01:18:47;;;;;;;6.07;2.83;;;;;;;18.29;47.03;101413.06;4438763;32;20881;-67
2021/12/14 01:21:46;;;;;;;8.52;3.50;;;;;;;18.23;46.57;101414.97;4438225;32;20122;-67
2021/12/14 01:24:42;;;;;;;6.05;3.53;;;;;;;18.11;46.92;101398.81;4429177;32;20084;-67
2021/12/14 01:27:13;;;;;;;6.85;3.78;;;;;;;18.11;46.56;101398.81;4422110;32;20045;-67
2021/12/14 01:29:40;;;;;;;8.23;3.80;;;;;;;17.93;46.53;101385.34;4425195;32;20044;-67
2021/12/14 01:32:07;;;;;;;7.28;4.18;;;;;;;17.79;46.99;101391.66;4429996;32;20059;-67
2021/12/14 01:34:35;;;;;;;9.35;4.43;;;;;;;17.87;47.07;101401.50;4428209;32;20073;-67
2021/12/14 01:37:07;;;;;;;9.52;5.03;;;;;;;17.73;47.26;101393.56;4428930;32;20096;-67
2021/12/14 01:44:57;;;;;;;10.75;5.93;;;;;;;18.50;46.25;101410.03;3982199;32;15028376;-68
2021/12/14 01:47:28;;;;;;;11.50;5.32;;;;;;;18.50;46.25;101410.03;4436330;32;20486;-68
2021/12/14 01:49:54;;;;;;;8.90;5.28;;;;;;;18.13;46.81;101413.37;4433249;32;20048;-68
2021/12/14 01:52:25;;;;;;;10.90;5.15;;;;;;;17.92;47.28;101420.00;4433726;32;20159;-68
2021/12/14 01:55:00;;;;;;;9.95;5.57;;;;;;;18.16;46.70;101413.22;4430578;32;20081;-68
2021/12/14 01:57:31;;;;;;;10.13;5.53;;;;;;;18.15;47.19;101419.38;4433958;32;20317;-68
2021/12/14 01:59:59;;;;;;;9.23;4.87;;;;;;;18.32;46.70;101430.00;4435429;32;20077;-68
2021/12/14 02:02:32;;;;;;;10.30;5.20;;;;;;;17.99;47.38;101416.84;4432453;32;20810;-68
2021/12/14 02:05:04;;;;;;;10.82;5.57;;;;;;;18.01;46.58;101417.16;4433097;32;20094;-68
2021/12/14 02:07:31;;;;;;;9.20;4.93;;;;;;;18.05;46.91;101423.50;4434122;32;20103;-68
2021/12/14 02:10:04;;;;;;;9.05;5.12;;;;;;;17.95;47.43;101421.91;4436015;32;20169;-68
2021/12/14 02:12:31;;;;;;;8.48;4.45;;;;;;;18.23;47.09;101427.16;4432940;32;20513;-68
2021/12/14 02:15:07;;;;;;;8.60;5.10;;;;;;;18.00;47.26;101441.19;4434888;32;20030;-68
2021/12/14 02:17:33;;;;;;;9.07;5.20;;;;;;;18.04;46.85;101444.72;4433243;32;20081;-68
2021/12/14 02:19:59;;;;;;;10.57;5.55;;;;;;;17.93;47.25;101439.47;4433965;32;20606;-68
2021/12/14 02:22:26;;;;;;;11.77;5.95;;;;;;;17.92;47.14;101434.25;4433472;32;20026;-68
2021/12/14 02:24:53;;;;;;;13.35;6.32;;;;;;;17.97;46.95;101430.78;4434036;32;20435;-68
2021/12/14 02:27:18;;;;;;;12.93;6.45;;;;;;;17.91;47.16;101435.53;4435122;32;20154;-68
2021/12/14 02:29:49;;;;;;;14.25;6.70;;;;;;;18.03;47.02;101421.13;4431737;32;20033;-68
2021/12/14 02:32:19;;;;;;;17.17;8.02;;;;;;;18.37;46.65;101431.44;4432360;32;20085;-68
2021/12/14 02:34:49;;;;;;;14.77;7.90;;;;;;;18.36;46.58;101441.22;4438200;32;20064;-68
2021/12/14 02:37:19;;;;;;;17.33;8.90;;;;;;;18.37;46.54;101442.81;4435897;32;20079;-68
2021/12/14 02:40:01;;;;;;;19.10;9.35;;;;;;;18.25;46.63;101447.41;4434004;32;20479;-68
2021/12/14 02:42:30;;;;;;;19.58;9.32;;;;;;;17.97;46.88;101454.34;4435652;32;20057;-68
2021/12/14 02:44:57;;;;;;;19.50;8.57;;;;;;;18.13;46.50;101453.25;4436314;32;20065;-68
2021/12/14 02:47:24;;;;;;;17.12;8.52;;;;;;;17.76;47.41;101452.41;4434500;32;20204;-68
2021/12/14 02:49:50;;;;;;;16.87;8.55;;;;;;;17.64;47.49;101456.16;4431218;32;20095;-67
2021/12/14 02:52:26;;;;;;;20.42;9.38;;;;;;;17.53;47.19;101447.28;4431350;32;20089;-67
2021/12/14 02:54:58;;;;;;;15.65;6.95;;;;;;;17.92;46.89;101463.53;4426322;32;20094;-67
2021/12/14 02:57:28;;;;;;;16.20;8.40;;;;;;;17.74;47.39;101458.56;4423354;32;20073;-67
2021/12/14 02:59:55;;;;;;;15.05;8.00;;;;;;;17.94;47.13;101463.06;4422065;32;20069;-67
2021/12/14 03:02:26;;;;;;;15.15;7.80;;;;;;;17.90;47.19;101446.09;4423448;32;20097;-67
2021/12/14 03:04:58;;;;;;;13.62;7.62;;;;;;;17.92;46.82;101447.22;4423925;32;20077;-67
2021/12/14 03:07:30;;;;;;;17.37;8.13;;;;;;;17.97;47.05;101447.88;4423528;32;20070;-67
2021/12/14 03:10:17;;;;;;;15.07;8.20;;;;;;;18.16;46.94;101444.53;4423691;32;20209;-67
2021/12/14 03:12:47;;;;;;;16.75;8.60;;;;;;;18.10;46.85;101440.75;4423072;32;20094;-67
2021/12/14 03:15:18;;;;;;;15.25;7.65;;;;;;;17.92;47.14;101434.25;4423462;32;20108;-67
2021/12/14 03:17:47;;;;;;;19.05;8.93;;;;;;;17.87;47.08;101429.97;4425360;32;20434;-67
2021/12/14 03:25:31;;;;;;;24.27;11.52;;;;;;;18.35;45.49;101414.00;3981838;32;15021163;-68
2021/12/14 03:27:58;;;;;;;28.12;12.25;;;;;;;18.35;45.49;101414.00;4427656;32;20033;-68
2021/12/14 03:33:05;;;;;;;25.25;11.60;;;;;;;18.47;46.50;101415.94;3955409;32;15729617;-68
2021/12/14 03:35:55;;;;;;;25.58;10.88;;;;;;;18.47;46.50;101415.94;4434687;32;20036;-68
2021/12/14 03:38:29;;;;;;;22.98;10.80;;;;;;;18.16;46.55;101420.97;4430772;32;20077;-67
2021/12/14 03:41:01;;;;;;;18.27;8.60;;;;;;;18.09;46.71;101427.78;4435633;32;20538;-68
2021/12/14 03:43:27;;;;;;;19.85;9.68;;;;;;;18.15;46.53;101420.19;4429913;32;20154;-68
2021/12/14 03:45:53;;;;;;;17.33;8.73;;;;;;;18.01;46.79;101422.88;4432724;32;20728;-67
2021/12/14 03:48:23;;;;;;;18.65;9.73;;;;;;;17.92;46.57;101417.16;4435844;32;20068;-67
2021/12/14 03:50:49;;;;;;;19.77;9.38;;;;;;;18.18;46.53;101410.69;4431199;32;20029;-67
2021/12/14 03:53:18;;;;;;;17.17;8.43;;;;;;;17.96;46.73;101412.91;4434826;32;20091;-67
2021/12/14 03:55:48;;;;;;;14.87;7.62;;;;;;;18.20;46.45;101405.31;4430667;32;20065;-68
2021/12/14 03:58:18;;;;;;;16.27;7.93;;;;;;;18.24;46.23;101413.69;4435381;32;20124;-68
2021/12/14 04:00:48;;;;;;;16.60;8.23;;;;;;;18.12;46.13;101403.22;4430745;32;20076;-67
2021/12/14 04:03:16;;;;;;;18.40;8.82;;;;;;;18.16;45.84;101403.88;4429961;32;20484;-67
2021/12/14 04:05:45;;;;;;;16.55;7.90;;;;;;;18.07;46.33;101409.59;4435797;32;20049;-67
2021/12/14 04:08:13;;;;;;;16.67;7.47;;;;;;;18.28;45.98;101397.25;4434291;32;20363;-67
2021/12/14 04:10:41;;;;;;;14.65;7.30;;;;;;;18.26;46.04;101406.25;4434584;32;20381;-67
2021/12/14 04:13:08;;;;;;;15.82;7.53;;;;;;;18.27;46.32;101404.97;4429082;32;20102;-67
2021/12/14 04:15:34;;;;;;;14.70;6.50;;;;;;;18.18;46.42;101404.19;4433778;32;20069;-67
2021/12/14 04:18:01;;;;;;;13.90;6.93;;;;;;;17.91;46.62;101410.66;4434457;32;20094;-67
2021/12/14 04:20:32;;;;;;;12.73;6.12;;;;;;;17.95;46.87;101411.31;4432236;32;20037;-67
2021/12/14 04:23:01;;;;;;;15.23;6.78;;;;;;;17.86;46.36;101400.69;4433429;32;20040;-67
2021/12/14 04:25:33;;;;;;;14.82;6.95;;;;;;;17.83;46.96;101404.47;4431806;32;20114;-67
2021/12/14 04:28:00;;;;;;;14.50;6.30;;;;;;;17.68;47.03;101402.72;4430007;32;20487;-67
2021/12/14 04:30:27;;;;;;;15.20;7.55;;;;;;;17.73;47.04;101405.75;4431374;32;20419;-67
2021/12/14 04:32:59;;;;;;;16.23;7.55;;;;;;;17.86;47.14;101397.06;4431236;32;20041;-68
2021/12/14 04:35:25;;;;;;;20.80;8.88;;;;;;;17.92;46.94;101398.03;4429573;32;20126;-68
2021/12/14 04:37:56;;;;;;;19.52;8.35;;;;;;;17.43;47.68;101400.16;4433358;32;20069;-68
2021/12/14 04:51:53;;;;;;;20.55;8.57;;;;;;;17.84;46.96;101410.97;4431465;32;20025;-68
2021/12/14 04:57:37;;;;;;;20.92;9.18;;;;;;;18.55;45.97;101425.72;3986267;32;15022144;-68
2021/12/14 05:02:59;;;;;;;21.55;8.68;;;;;;;18.01;46.60;101425.72;3984334;32;15024224;-67
2021/12/14 05:05:31;;;;;;;23.33;9.30;;;;;;;17.86;47.24;101426.31;4439901;32;20557;-67
2021/12/14 05:13:36;;;;;;;18.80;8.05;;;;;;;18.55;46.23;101408.62;3984412;32;15023618;-68
2021/12/14 05:16:03;;;;;;;17.73;7.45;;;;;;;18.55;46.23;101408.62;4438118;32;20211;-68
2021/12/14 05:18:29;;;;;;;18.23;7.15;;;;;;;18.01;46.76;101403.69;4436191;32;20557;-68
2021/12/14 05:20:57;;;;;;;15.75;6.60;;;;;;;17.86;46.85;101399.91;4434063;32;20060;-68
2021/12/14 05:23:27;;;;;;;12.23;5.45;;;;;;;17.78;46.59;101385.19;4434880;32;20114;-68
2021/12/14 05:25:54;;;;;;;12.05;5.30;;;;;;;17.62;46.47;101387.53;4438579;32;20520;-67
2021/12/14 05:28:21;;;;;;;17.70;6.62;;;;;;;17.56;47.34;101387.38;4439510;32;20068;-67
2021/12/14 05:30:50;;;;;;;15.15;5.72;;;;;;;17.70;47.04;101383.91;4435900;32;20069;-67
2021/12/14 05:33:21;;;;;;;13.32;6.07;;;;;;;18.09;46.27;101390.75;4438541;32;20071;-67
2021/12/14 05:35:50;;;;;;;16.45;7.25;;;;;;;17.92;46.14;101387.41;4439167;32;20059;-67
2021/12/14 05:38:24;;;;;;;15.43;6.65;;;;;;;17.81;46.79;101395.63;4437902;32;20144;-67
2021/12/14 05:43:30;;;;;;;14.68;5.97;;;;;;;18.16;46.18;101383.94;3970206;32;15021333;-67
2021/12/14 05:46:01;;;;;;;14.30;6.15;;;;;;;18.28;46.32;101392.31;4420687;32;20423;-67
2021/12/14 05:48:31;;;;;;;12.88;5.40;;;;;;;18.20;46.10;101393.91;4423710;32;20090;-67
2021/12/14 05:51:02;;;;;;;13.90;5.62;;;;;;;17.95;46.67;101399.13;4421307;32;20060;-67
2021/12/14 05:53:32;;;;;;;15.45;5.35;;;;;;;18.13;45.87;101396.28;4421481;32;20450;-67
2021/12/14 05:56:01;;;;;;;10.77;4.57;;;;;;;18.17;46.19;101397.72;4419693;32;20090;-66
2021/12/14 05:58:28;;;;;;;11.95;5.00;;;;;;;17.95;46.28;101396.28;4422023;32;20025;-67
2021/12/14 06:00:59;;;;;;;10.68;4.47;;;;;;;17.70;46.62;101403.03;4421322;32;20112;-66
2021/12/14 06:03:29;;;;;;;12.98;4.72;;;;;;;18.06;46.27;101402.28;4422327;32;20068;-67
2021/12/14 06:05:57;;;;;;;12.02;4.85;;;;;;;18.27;45.85;101398.47;4420263;32;20109;-67
2021/12/14 06:08:27;;;;;;;7.25;3.90;;;;;;;17.95;46.53;101410.50;4422084;32;20077;-66
2021/12/14 06:10:55;;;;;;;11.48;4.40;;;;;;;18.03;46.28;101406.06;4423483;32;20069;-66
2021/12/14 06:13:32;;;;;;;11.80;4.82;;;;;;;17.72;46.73;101409.06;4421050;32;20099;-67
2021/12/14 06:15:58;;;;;;;11.18;5.07;;;;;;;17.79;46.58;101405.91;4423315;32;20165;-67
2021/12/14 06:18:24;;;;;;;11.95;4.97;;;;;;;17.64;46.59;101410.59;4420832;32;20454;-67
2021/12/14 06:20:50;;;;;;;11.82;5.10;;;;;;;17.61;46.94;101408.72;4420151;32;20034;-67
2021/12/14 06:23:23;;;;;;;11.23;4.95;;;;;;;17.68;46.79;101414.13;4417079;32;20057;-67
2021/12/14 06:25:49;;;;;;;13.35;5.62;;;;;;;18.00;45.92;101410.69;4420048;32;20160;-67
2021/12/14 06:28:25;;;;;;;13.82;5.07;;;;;;;17.84;46.55;101416.66;4420143;32;20046;-67
2021/12/14 06:30:52;;;;;;;11.85;5.30;;;;;;;18.16;46.12;101415.28;4424799;32;20075;-67
2021/12/14 06:33:18;;;;;;;12.23;5.07;;;;;;;17.89;46.67;101413.97;4422854;32;20038;-67
2021/12/14 06:35:49;;;;;;;12.55;5.50;;;;;;;17.99;46.06;101417.66;4424525;32;20060;-67
2021/12/14 06:38:28;;;;;;;15.63;6.32;;;;;;;18.18;46.18;101415.59;4418502;32;20057;-67
2021/12/14 06:43:58;;;;;;;10.63;5.00;;;;;;;18.89;44.88;101437.53;3982008;32;15025490;-68
2021/12/14 06:51:46;;;;;;;12.45;5.90;;;;;;;19.03;44.74;101456.03;4003471;31;15018061;-68
2021/12/14 06:54:29;;;;;;;13.32;6.80;;;;;;;19.03;44.74;101456.03;4461501;32;21143;-68
2021/12/14 06:56:58;;;;;;;12.82;6.68;;;;;;;18.76;44.81;101458.94;4463249;32;20395;-68
2021/12/14 06:59:24;;;;;;;14.87;6.65;;;;;;;18.58;45.30;101458.97;4468326;32;20041;-68
2021/12/14 07:01:54;;;;;;;14.10;6.20;;;;;;;18.45;45.43;101461.22;4464203;32;20156;-68
2021/12/14 07:04:25;;;;;;;13.18;6.40;;;;;;;18.63;45.73;101461.19;4459476;32;20429;-68
2021/12/14 07:09:50;;;;;;;13.45;6.30;;;;;;;18.63;44.89;101461.19;3985223;32;15023507;-67
2021/12/14 07:12:27;;;;;;;11.57;5.80;;;;;;;18.70;45.22;101460.87;4432628;32;20442;-67
2021/12/14 07:17:41;;;;;;;16.67;7.57;;;;;;;18.70;44.85;101467.37;3999528;31;15016061;-68
2021/12/14 07:20:21;;;;;;;19.55;7.15;;;;;;;18.66;45.44;101480.19;4452307;32;20075;-68
2021/12/14 07:22:50;;;;;;;13.45;6.35;;;;;;;18.82;44.92;101468.44;4454668;32;20041;-68
2021/12/14 07:25:27;;;;;;;16.60;6.78;;;;;;;18.68;44.73;101460.56;4457865;32;20116;-68
2021/12/14 07:33:14;;;;;;;11.90;6.20;;;;;;;19.32;43.87;101459.12;3992195;32;15023282;-68
2021/12/14 07:38:29;;;;;;;13.85;6.07;;;;;;;18.94;44.36;101456.06;3994684;31;15015360;-68
2021/12/14 07:41:09;;;;;;;13.00;7.03;;;;;;;18.83;44.30;101450.87;4448431;32;20453;-68
2021/12/14 07:43:42;;;;;;;17.02;7.07;;;;;;;18.81;44.52;101449.75;4453270;32;20135;-68
2021/12/14 07:46:16;;;;;;;17.85;7.53;;;;;;;18.70;44.32;101444.56;4454760;32;20063;-68
2021/12/14 07:48:48;;;;;;;16.42;6.93;;;;;;;18.55;44.56;101449.31;4449319;32;20118;-69
2021/12/14 07:51:18;;;;;;;16.37;7.40;;;;;;;18.26;45.27;101449.00;4445261;32;20099;-69
2021/12/14 07:53:49;;;;;;;25.40;13.75;;;;;;;18.18;45.53;101446.91;4449907;32;20100;-68
2021/12/14 07:56:25;;;;;;;17.75;7.50;;;;;;;18.14;45.60;101449.94;4452821;32;20147;-68
2021/12/14 07:58:51;;;;;;;17.20;7.65;;;;;;;17.92;45.95;101448.47;4446255;32;20076;-68
2021/12/14 08:01:17;;;;;;;18.67;6.75;;;;;;;17.59;46.74;101446.22;4446274;32;20230;-68
2021/12/14 08:03:43;;;;;;;13.52;6.53;;;;;;;17.45;47.03;101458.16;4442072;32;20077;-68
2021/12/14 08:06:12;;;;;;;12.10;6.00;;;;;;;17.13;47.50;101452.16;4424768;32;20200;-68
2021/12/14 08:08:53;;;;;;;12.20;6.18;;;;;;;17.33;47.31;101467.56;4443926;32;20038;-68
2021/12/14 08:14:15;;;;;;;13.23;5.32;;;;;;;17.05;47.46;101473.59;3977182;32;15034108;-68
2021/12/14 08:16:45;;;;;;;13.70;4.65;;;;;;;17.41;47.33;101471.72;4427954;32;20060;-68
2021/12/14 08:19:23;;;;;;;9.65;4.55;;;;;;;16.82;48.25;101472.03;4427061;32;20421;-69
2021/12/14 08:21:49;;;;;;;10.95;4.37;;;;;;;16.99;48.07;101479.09;4425969;32;20436;-68
2021/12/14 08:24:16;;;;;;;9.20;4.00;;;;;;;16.75;48.13;101471.53;4428415;32;20439;-68
2021/12/14 08:26:48;;;;;;;8.75;3.87;;;;;;;16.95;47.77;101471.94;4426822;32;20252;-69
2021/12/14 08:29:21;;;;;;;8.15;4.00;;;;;;;16.99;48.08;101475.44;4425294;32;20056;-69
2021/12/14 08:31:52;;;;;;;9.90;4.10;;;;;;;17.13;47.71;101477.75;4421630;32;20086;-69
2021/12/14 08:34:24;;;;;;;10.88;4.32;;;;;;;16.87;48.05;101477.13;4427716;32;20093;-69
2021/12/14 08:36:54;;;;;;;8.48;3.87;;;;;;;16.85;48.07;101484.53;4427749;32;20044;-69
2021/12/14 08:39:25;;;;;;;10.20;4.93;;;;;;;16.83;48.39;101481.34;4429782;32;20112;-69
2021/12/14 08:44:53;;;;;;;9.23;4.90;;;;;;;17.55;47.44;101493.16;3980328;32;15022974;-69
2021/12/14 08:50:07;;;;;;;14.60;5.87;;;;;;;17.22;47.66;101487.13;3980740;32;15025035;-70
2021/12/14 08:52:34;;;;;;;15.85;6.53;;;;;;;17.16;48.26;101491.03;4441394;32;20145;-69
2021/12/14 08:55:04;;;;;;;14.10;5.80;;;;;;;17.15;48.25;101498.75;4441231;32;20104;-68
2021/12/14 08:57:31;;;;;;;14.40;6.15;;;;;;;16.99;49.21;101492.50;4440874;32;20251;-69
2021/12/14 09:00:06;;;;;;;11.48;5.47;;;;;;;17.26;48.39;101493.47;4445519;32;20180;-69
2021/12/14 09:02:32;;;;;;;12.13;5.82;;;;;;;17.46;48.07;101491.03;4443362;32;20037;-69
2021/12/14 09:05:05;;;;;;;15.45;6.68;;;;;;;17.06;48.85;101495.88;4442855;32;21367;-69
2021/12/14 09:07:32;;;;;;;14.52;6.28;;;;;;;17.35;48.42;101484.97;4444745;32;20380;-69
2021/12/14 09:09:59;;;;;;;16.87;6.80;;;;;;;16.94;49.44;101493.91;4441988;32;20075;-69
2021/12/14 09:12:39;;;;;;;16.25;5.87;;;;;;;17.10;49.17;101493.69;4447569;32;20897;-70
2021/12/14 09:15:12;;;;;;;12.77;5.95;;;;;;;17.24;48.61;101481.75;4444455;32;20497;-70
2021/12/14 09:17:38;;;;;;;13.88;5.50;;;;;;;17.27;49.18;101483.66;4442948;32;20066;-70
2021/12/14 09:20:17;;;;;;;12.20;5.60;;;;;;;16.95;49.44;101486.97;4443682;32;20150;-70
2021/12/14 09:22:46;;;;;;;14.73;6.18;;;;;;;17.32;48.87;101487.94;4444495;32;20098;-70
2021/12/14 09:25:18;;;;;;;13.38;5.80;;;;;;;17.30;49.45;101485.56;4444288;32;20084;-69
2021/12/14 09:27:45;;;;;;;16.10;5.78;;;;;;;17.24;49.23;101490.28;4442883;32;20087;-70
2021/12/14 09:30:15;;;;;;;11.73;5.28;;;;;;;17.55;48.85;101488.22;4432510;32;20104;-69
2021/12/14 09:32:42;;;;;;;11.77;5.35;;;;;;;17.63;48.60;101486.69;4438796;32;20056;-70
2021/12/14 09:35:16;;;;;;;12.82;5.75;;;;;;;17.51;49.11;101492.50;4438524;32;20107;-70
2021/12/14 09:37:45;;;;;;;9.98;4.93;;;;;;;17.91;48.19;101493.25;4439281;32;20056;-70
2021/12/14 09:40:19;;;;;;;11.98;5.03;;;;;;;17.86;48.52;101491.81;4443556;32;20132;-69
2021/12/14 09:42:46;;;;;;;13.98;5.18;;;;;;;18.37;47.32;101494.13;4442511;32;20165;-69
2021/12/14 09:45:17;;;;;;;13.30;5.05;;;;;;;18.48;46.70;101494.47;4431055;32;20085;-69
2021/12/14 09:47:47;;;;;;;;;;;;;;;18.85;46.46;101496.03;4443200;32;20085;-71
2021/12/14 09:50:19;;;;;;;9.73;4.80;;;;;;;19.43;44.97;101499.38;4443262;32;20180;-69
2021/12/14 09:52:47;;;;;;;12.85;5.03;;;;;;;19.42;44.83;101503.53;4440058;32;20077;-69
2021/12/14 09:55:20;;;;;;;11.00;5.03;;;;;;;19.09;44.64;101502.62;4443463;32;20069;-69
2021/12/14 09:57:52;;;;;;;10.90;4.90;;;;;;;19.76;43.94;101514.47;4441381;32;20064;-71
2021/12/14 10:02:56;;;;;;;8.73;4.60;;;;;;;19.79;43.77;101521.03;3981302;31;15014660;-70
2021/12/14 10:05:27;;;;;;;8.40;4.68;;;;;;;19.75;43.76;101513.69;4447588;32;20037;-70
2021/12/14 10:07:55;;;;;;;7.87;4.07;;;;;;;19.86;43.43;101524.56;4446810;32;20052;-69
2021/12/14 10:10:21;;;;;;;8.90;4.82;;;;;;;19.55;43.73;101518.37;4447039;32;20714;-69
2021/12/14 10:12:53;;;;;;;7.55;4.10;;;;;;;19.80;43.20;101520.78;4445002;32;20215;-69
2021/12/14 10:15:34;;;;;;;6.37;3.60;;;;;;;19.78;43.10;101517.63;4448057;32;20081;-69
2021/12/14 10:18:10;;;;;;;8.25;4.15;;;;;;;19.83;42.78;101520.59;4444724;32;20056;-69
2021/12/14 10:20:58;;;;;;;8.55;4.07;;;;;;;20.02;42.91;101518.44;4444961;32;20033;-70
2021/12/14 10:23:25;;;;;;;10.27;3.67;;;;;;;20.56;42.17;101520.16;4444677;32;20080;-69
2021/12/14 10:25:54;;;;;;;10.65;5.05;;;;;;;20.80;42.36;101530.28;4446545;32;20048;-70
2021/12/14 10:28:23;;;;;;;8.77;4.93;;;;;;;21.01;41.24;101528.34;4444827;32;20089;-70
2021/12/14 10:30:56;;;;;;;7.47;3.62;;;;;;;21.55;40.49;101525.69;4445327;32;20176;-70
2021/12/14 10:33:25;;;;;;;7.53;4.30;;;;;;;22.21;39.50;101522.28;4447494;32;20041;-70
2021/12/14 10:36:02;;;;;;;11.07;4.95;;;;;;;22.26;38.59;101518.69;4446514;32;20200;-70
2021/12/14 10:38:38;;;;;;;8.90;4.45;;;;;;;22.68;38.40;101516.13;4433032;32;20076;-70
2021/12/14 10:43:42;;;;;;;7.45;3.85;;;;;;;23.16;37.60;101526.56;3997631;31;15015656;-70
2021/12/14 10:46:19;;;;;;;12.10;3.90;;;;;;;23.16;37.60;101526.56;4454303;32;20067;-71
2021/12/14 10:48:47;;;;;;;5.70;3.20;;;;;;;23.08;37.47;101518.94;4454404;32;20133;-71
2021/12/14 10:51:17;;;;;;;7.22;3.15;;;;;;;23.14;37.02;101519.78;4454062;32;20045;-71
2021/12/14 10:53:47;;;;;;;6.80;3.22;;;;;;;23.57;36.84;101518.63;4456552;32;20093;-70
2021/12/14 10:56:19;;;;;;;9.38;3.55;;;;;;;23.22;37.80;101518.00;4455695;32;20091;-70
2021/12/14 10:58:49;;;;;;;4.20;2.58;;;;;;;23.46;37.33;101509.91;4452650;32;20072;-71
2021/12/14 11:01:23;;;;;;;4.85;2.87;;;;;;;23.59;36.16;101513.12;4453962;32;20044;-70
2021/12/14 11:03:53;;;;;;;5.75;3.10;;;;;;;23.92;36.40;101513.38;4456622;32;20097;-69
2021/12/14 11:06:28;;;;;;;8.48;3.20;;;;;;;23.82;36.65;101506.25;4453480;32;20179;-69
2021/12/14 11:11:55;;;;;;;4.82;2.35;;;;;;;23.23;37.38;101500.28;3978247;32;15022664;-70
2021/12/14 11:14:26;;;;;;;8.27;4.32;;;;;;;23.23;37.38;101500.28;4431520;32;20085;-70
2021/12/14 11:22:25;;;;;;;4.87;2.50;;;;;;;22.75;39.03;101492.72;3949417;32;15722277;-68
2021/12/14 11:25:01;;;;;;;5.95;2.87;;;;;;;22.75;39.03;101492.72;4425292;32;20171;-69
2021/12/14 11:27:33;;;;;;;5.97;3.33;;;;;;;22.48;39.28;101484.56;4424249;32;20073;-68
2021/12/14 11:32:48;;;;;;;3.85;2.03;;;;;;;22.49;39.22;101480.41;3982287;32;15021241;-70
2021/12/14 11:35:18;;;;;;;6.55;3.30;;;;;;;22.06;40.12;101479.31;4417786;32;20129;-68
2021/12/14 11:37:44;;;;;;;4.55;2.58;;;;;;;21.87;40.90;101478.00;4430128;32;20096;-69
2021/12/14 11:40:11;;;;;;;3.75;2.45;;;;;;;21.43;41.74;101475.25;4431331;32;20926;-69
2021/12/14 11:42:37;;;;;;;6.03;2.85;;;;;;;21.69;41.46;101487.63;4430930;32;20827;-70
2021/12/14 11:45:09;;;;;;;5.47;2.60;;;;;;;21.32;42.00;101480.78;4432423;32;20045;-69
2021/12/14 11:50:37;;;;;;;6.45;2.80;;;;;;;21.77;41.31;101473.72;3975793;32;15022146;-70
2021/12/14 12:06:15;;;;;;;8.55;4.20;;;;;;;22.13;41.39;101480.97;3971500;32;15023989;-70
2021/12/14 12:11:36;;;;;;;6.37;3.05;;;;;;;21.94;41.35;101480.47;4426248;32;20031;-70
2021/12/14 12:14:18;;;;;;;7.57;3.12;;;;;;;21.88;41.67;101470.22;4426282;32;20069;-70
2021/12/14 12:16:44;;;;;;;5.05;2.95;;;;;;;21.80;41.25;101464.13;4421376;32;20418;-70
2021/12/14 12:21:51;;;;;;;7.20;3.17;;;;;;;21.79;41.79;101456.81;3972899;32;15023038;-70
2021/12/14 12:30:27;;;;;;;8.32;3.58;;;;;;;22.10;41.40;101450.44;3982674;31;15017656;-70
2021/12/14 12:32:54;;;;;;;5.68;3.08;;;;;;;22.02;41.43;101444.34;4440037;32;20465;-70
2021/12/14 12:37:59;;;;;;;7.62;4.50;;;;;;;21.98;42.17;101452.38;3987483;31;15017626;-70
2021/12/14 12:40:47;;;;;;;6.87;3.90;;;;;;;21.98;42.17;101452.38;4439524;32;20125;-70
2021/12/14 12:45:58;;;;;;;6.65;3.75;;;;;;;21.85;41.96;101446.22;3975374;32;15022306;-69
2021/12/14 13:16:27;;;;;;;6.82;4.15;;;;;;;23.57;39.64;101435.28;3968552;32;15022032;-68
2021/12/14 13:21:53;;;;;;;5.97;3.85;;;;;;;24.02;38.75;101442.12;3968859;32;15026262;-70
2021/12/14 13:27:13;;;;;;;7.55;4.05;;;;;;;23.56;39.05;101438.69;3985774;31;15015843;-70
2021/12/14 13:35:22;;;;;;;6.97;3.97;;;;;;;23.79;38.90;101432.56;3974643;32;15022111;-69
2021/12/14 13:37:56;;;;;;;7.78;3.72;;;;;;;23.95;38.77;101439.72;4427129;32;20184;-69
2021/12/14 13:45:38;;;;;;;2.62;1.83;;;;;;;23.96;38.75;101452.81;3974816;32;15024218;-70
2021/12/14 13:48:07;;;;;;;3.35;1.60;;;;;;;23.52;39.15;101436.03;4423269;32;20044;-70
2021/12/14 13:50:36;;;;;;;5.30;1.98;;;;;;;23.37;39.79;101432.53;4423436;32;20037;-71
2021/12/14 13:53:02;;;;;;;2.53;1.62;;;;;;;23.01;40.39;101431.16;4425826;32;20041;-70
2021/12/14 13:55:35;;;;;;;4.30;2.33;;;;;;;23.31;39.91;101423.87;4421220;32;20073;-70
2021/12/14 13:58:06;;;;;;;7.07;3.03;;;;;;;23.50;39.90;101424.25;4425266;32;20077;-70
2021/12/14 14:00:40;;;;;;;2.62;1.40;;;;;;;23.38;39.95;101425.50;4425056;32;20073;-71
2021/12/14 14:03:08;;;;;;;1.30;1.00;;;;;;;23.46;39.22;101421.62;4425265;32;20099;-70
2021/12/14 14:05:34;;;;;;;2.62;1.40;;;;;;;23.52;39.56;101415.91;4413049;32;20152;-69
2021/12/14 14:08:08;;;;;;;4.65;1.12;;;;;;;23.17;40.17;101421.13;4423930;32;20084;-70
2021/12/14 14:10:35;;;;;;;3.35;1.62;;;;;;;23.72;39.51;101420.75;4427015;32;20056;-69
2021/12/14 14:13:09;;;;;;;1.95;1.00;;;;;;;23.47;40.05;101416.66;4424143;32;20042;-70
2021/12/14 14:15:37;;;;;;;2.83;1.37;;;;;;;23.14;40.40;101416.41;4424287;32;20365;-70
2021/12/14 14:18:06;;;;;;;1.90;0.95;;;;;;;23.27;40.17;101408.16;4424606;32;20415;-69
2021/12/14 14:20:37;;;;;;;1.80;0.68;;;;;;;23.13;40.60;101404.09;4424446;32;20085;-69
2021/12/14 14:23:08;;;;;;;4.05;1.30;;;;;;;23.11;40.45;101406.69;4421937;32;20078;-68